Weather at Gorski Izvor Airstrip

Public forecast

Using degrees Celsius for public forecast. Weather courtesy of forecast.io.

Closest aviation weather report (METAR) to Gorski Izvor Airstrip

Closest report is Plovdiv International Airport, 24.9 nm (46.2 km) W.

2024/07/21 12:00 (retrieved 40 minutes ago)

LBPD 211200Z AUTO 14012KT 120V180 9999 FEW028/// BKN140/// 30/20 Q1008 NOSIG

Closest aviation forecast (TAF) to Gorski Izvor Airstrip

Closest forecast is Plovdiv International Airport, 24.9 nm (46.2 km) W.

2024/07/21 12:18 (retrieved 22 minutes ago)

TAF LBPD 211100Z 2112/2212 VRB04KT 9999 SCT070 TEMPO 2112/2118 VRB16G30KT 4000 TSRA SCT030CB BKN050